sensor_id;sensor_type;location;lat;lon;timestamp;pressure;altitude;pressure_sealevel;temperature;humidity
74544;BME280;63016;55.030;38.710;2023-06-22T00:00:51;100241.25;;;9.56;44.22
74544;BME280;63016;55.030;38.710;2023-06-22T00:03:20;100235.41;;;9.54;44.32
74544;BME280;63016;55.030;38.710;2023-06-22T00:05:47;100235.69;;;9.51;44.46
74544;BME280;63016;55.030;38.710;2023-06-22T00:08:13;100236.94;;;9.47;45.01
74544;BME280;63016;55.030;38.710;2023-06-22T00:10:39;100233.97;;;9.42;45.04
74544;BME280;63016;55.030;38.710;2023-06-22T00:13:06;100240.97;;;9.41;45.18
74544;BME280;63016;55.030;38.710;2023-06-22T00:15:32;100248.78;;;9.41;44.62
74544;BME280;63016;55.030;38.710;2023-06-22T00:17:58;100239.63;;;9.37;44.66
74544;BME280;63016;55.030;38.710;2023-06-22T00:20:24;100235.56;;;9.35;44.17
74544;BME280;63016;55.030;38.710;2023-06-22T00:22:53;100241.22;;;9.30;44.86
74544;BME280;63016;55.030;38.710;2023-06-22T00:25:19;100237.41;;;9.24;44.42
74544;BME280;63016;55.030;38.710;2023-06-22T00:27:44;100238.50;;;9.22;44.81
74544;BME280;63016;55.030;38.710;2023-06-22T00:30:10;100238.31;;;9.15;45.07
74544;BME280;63016;55.030;38.710;2023-06-22T00:32:36;100246.25;;;9.14;44.32
74544;BME280;63016;55.030;38.710;2023-06-22T00:35:01;100242.31;;;9.10;44.16
74544;BME280;63016;55.030;38.710;2023-06-22T00:37:27;100241.94;;;9.05;44.03
74544;BME280;63016;55.030;38.710;2023-06-22T00:39:55;100239.34;;;9.05;44.88
74544;BME280;63016;55.030;38.710;2023-06-22T00:42:20;100244.53;;;9.05;44.54
74544;BME280;63016;55.030;38.710;2023-06-22T00:44:46;100243.84;;;9.02;45.73
74544;BME280;63016;55.030;38.710;2023-06-22T00:47:15;100246.47;;;9.02;45.48
74544;BME280;63016;55.030;38.710;2023-06-22T00:49:41;100243.84;;;9.02;45.65
74544;BME280;63016;55.030;38.710;2023-06-22T00:52:07;100251.00;;;9.00;45.50
74544;BME280;63016;55.030;38.710;2023-06-22T00:54:37;100247.72;;;8.98;45.03
74544;BME280;63016;55.030;38.710;2023-06-22T00:57:03;100241.16;;;8.94;44.83
74544;BME280;63016;55.030;38.710;2023-06-22T00:59:29;100250.75;;;8.94;45.51
74544;BME280;63016;55.030;38.710;2023-06-22T01:01:55;100253.50;;;8.92;45.27
74544;BME280;63016;55.030;38.710;2023-06-22T01:04:34;100249.94;;;8.93;45.74
74544;BME280;63016;55.030;38.710;2023-06-22T01:12:41;100251.50;;;8.86;44.77
74544;BME280;63016;55.030;38.710;2023-06-22T01:15:15;100260.13;;;8.87;45.70
74544;BME280;63016;55.030;38.710;2023-06-22T01:17:44;100258.59;;;8.84;45.05
74544;BME280;63016;55.030;38.710;2023-06-22T01:20:10;100257.94;;;8.82;44.77
74544;BME280;63016;55.030;38.710;2023-06-22T01:23:05;100264.78;;;8.83;45.28
74544;BME280;63016;55.030;38.710;2023-06-22T01:28:50;100267.38;;;8.83;46.02
74544;BME280;63016;55.030;38.710;2023-06-22T01:31:22;100261.22;;;8.84;46.92
74544;BME280;63016;55.030;38.710;2023-06-22T01:33:51;100269.41;;;8.89;46.22
74544;BME280;63016;55.030;38.710;2023-06-22T01:36:18;100273.22;;;8.95;46.60
74544;BME280;63016;55.030;38.710;2023-06-22T01:38:45;100273.63;;;9.00;46.28
74544;BME280;63016;55.030;38.710;2023-06-22T01:41:12;100271.38;;;9.05;46.31
74544;BME280;63016;55.030;38.710;2023-06-22T01:43:38;100263.81;;;9.12;45.99
74544;BME280;63016;55.030;38.710;2023-06-22T01:46:04;100266.50;;;9.20;46.69
74544;BME280;63016;55.030;38.710;2023-06-22T01:48:30;100273.06;;;9.24;46.63
74544;BME280;63016;55.030;38.710;2023-06-22T01:50:57;100270.00;;;9.29;46.74
74544;BME280;63016;55.030;38.710;2023-06-22T01:53:24;100268.28;;;9.37;46.65
74544;BME280;63016;55.030;38.710;2023-06-22T01:55:49;100270.00;;;9.46;47.17
74544;BME280;63016;55.030;38.710;2023-06-22T01:58:15;100267.31;;;9.56;47.27
74544;BME280;63016;55.030;38.710;2023-06-22T02:00:52;100270.06;;;9.72;48.10
74544;BME280;63016;55.030;38.710;2023-06-22T02:03:22;100266.25;;;9.85;47.45
74544;BME280;63016;55.030;38.710;2023-06-22T02:06:08;100271.44;;;10.02;47.05
74544;BME280;63016;55.030;38.710;2023-06-22T02:08:41;100274.00;;;10.20;48.60
74544;BME280;63016;55.030;38.710;2023-06-22T02:11:13;100263.16;;;10.33;47.62
74544;BME280;63016;55.030;38.710;2023-06-22T02:13:40;100257.06;;;10.50;48.87
74544;BME280;63016;55.030;38.710;2023-06-22T02:16:10;100253.19;;;10.63;48.39
74544;BME280;63016;55.030;38.710;2023-06-22T02:18:36;100262.22;;;10.76;48.54
74544;BME280;63016;55.030;38.710;2023-06-22T02:21:02;100256.06;;;10.86;48.24
74544;BME280;63016;55.030;38.710;2023-06-22T02:23:28;100257.06;;;10.93;48.79
74544;BME280;63016;55.030;38.710;2023-06-22T02:25:54;100258.41;;;11.05;48.81
74544;BME280;63016;55.030;38.710;2023-06-22T02:28:19;100266.41;;;11.12;48.75
74544;BME280;63016;55.030;38.710;2023-06-22T02:30:45;100253.69;;;11.17;48.00
74544;BME280;63016;55.030;38.710;2023-06-22T02:33:10;100260.56;;;11.26;48.12
74544;BME280;63016;55.030;38.710;2023-06-22T02:35:36;100260.88;;;11.31;48.09
74544;BME280;63016;55.030;38.710;2023-06-22T02:38:02;100270.72;;;11.37;48.56
74544;BME280;63016;55.030;38.710;2023-06-22T02:40:31;100276.41;;;11.41;48.54
74544;BME280;63016;55.030;38.710;2023-06-22T02:42:57;100274.97;;;11.46;48.63
74544;BME280;63016;55.030;38.710;2023-06-22T02:45:28;100278.88;;;11.50;48.51
74544;BME280;63016;55.030;38.710;2023-06-22T02:47:54;100274.97;;;11.54;48.47
74544;BME280;63016;55.030;38.710;2023-06-22T02:50:20;100276.78;;;11.62;48.77
74544;BME280;63016;55.030;38.710;2023-06-22T02:52:45;100276.94;;;11.69;48.44
74544;BME280;63016;55.030;38.710;2023-06-22T02:55:11;100263.22;;;11.75;49.05
74544;BME280;63016;55.030;38.710;2023-06-22T02:57:37;100260.75;;;11.81;49.36
74544;BME280;63016;55.030;38.710;2023-06-22T03:00:03;100268.78;;;11.88;48.88
74544;BME280;63016;55.030;38.710;2023-06-22T03:02:45;100265.19;;;11.97;49.37
74544;BME280;63016;55.030;38.710;2023-06-22T03:05:11;100267.44;;;12.08;49.46
74544;BME280;63016;55.030;38.710;2023-06-22T03:07:42;100267.44;;;12.17;49.49
74544;BME280;63016;55.030;38.710;2023-06-22T03:10:09;100262.69;;;12.28;49.42
74544;BME280;63016;55.030;38.710;2023-06-22T03:12:36;100262.31;;;12.40;49.43
74544;BME280;63016;55.030;38.710;2023-06-22T03:15:01;100260.97;;;12.52;49.56
74544;BME280;63016;55.030;38.710;2023-06-22T03:17:26;100253.75;;;12.62;49.33
74544;BME280;63016;55.030;38.710;2023-06-22T03:19:52;100261.03;;;12.75;49.65
74544;BME280;63016;55.030;38.710;2023-06-22T03:22:17;100239.25;;;12.82;50.12
74544;BME280;63016;55.030;38.710;2023-06-22T03:24:43;100250.97;;;12.95;49.47
74544;BME280;63016;55.030;38.710;2023-06-22T03:27:08;100253.22;;;13.06;49.99
74544;BME280;63016;55.030;38.710;2023-06-22T03:29:34;100256.41;;;13.16;49.94
74544;BME280;63016;55.030;38.710;2023-06-22T03:31:59;100254.25;;;13.28;50.03
74544;BME280;63016;55.030;38.710;2023-06-22T03:34:25;100248.75;;;13.37;50.03
74544;BME280;63016;55.030;38.710;2023-06-22T03:36:50;100249.19;;;13.49;50.10
74544;BME280;63016;55.030;38.710;2023-06-22T03:39:16;100248.94;;;13.59;49.98
74544;BME280;63016;55.030;38.710;2023-06-22T03:41:41;100248.53;;;13.70;50.13
74544;BME280;63016;55.030;38.710;2023-06-22T03:44:07;100236.97;;;13.79;50.37
74544;BME280;63016;55.030;38.710;2023-06-22T03:46:35;100242.59;;;13.91;50.08
74544;BME280;63016;55.030;38.710;2023-06-22T03:49:01;100248.03;;;14.04;50.27
74544;BME280;63016;55.030;38.710;2023-06-22T03:51:28;100247.44;;;14.17;49.74
74544;BME280;63016;55.030;38.710;2023-06-22T03:53:53;100245.16;;;14.29;49.63
74544;BME280;63016;55.030;38.710;2023-06-22T03:56:19;100240.09;;;14.42;49.93
74544;BME280;63016;55.030;38.710;2023-06-22T03:58:46;100242.28;;;14.53;49.96
74544;BME280;63016;55.030;38.710;2023-06-22T04:01:11;100238.56;;;14.62;49.79
74544;BME280;63016;55.030;38.710;2023-06-22T04:03:37;100232.03;;;14.73;49.68
74544;BME280;63016;55.030;38.710;2023-06-22T04:06:03;100232.38;;;14.85;49.76
74544;BME280;63016;55.030;38.710;2023-06-22T04:08:29;100232.88;;;14.95;50.07
74544;BME280;63016;55.030;38.710;2023-06-22T04:10:54;100233.00;;;15.08;49.81
74544;BME280;63016;55.030;38.710;2023-06-22T04:13:20;100224.44;;;15.21;49.78
74544;BME280;63016;55.030;38.710;2023-06-22T04:15:45;100225.75;;;15.32;49.84
74544;BME280;63016;55.030;38.710;2023-06-22T04:18:11;100240.03;;;15.44;50.06
74544;BME280;63016;55.030;38.710;2023-06-22T04:20:36;100224.56;;;15.56;49.38
74544;BME280;63016;55.030;38.710;2023-06-22T04:23:02;100223.09;;;15.68;49.25
74544;BME280;63016;55.030;38.710;2023-06-22T04:25:28;100220.72;;;15.80;49.40
74544;BME280;63016;55.030;38.710;2023-06-22T04:30:38;100224.38;;;16.07;48.25
74544;BME280;63016;55.030;38.710;2023-06-22T04:33:15;100220.38;;;16.17;48.40
74544;BME280;63016;55.030;38.710;2023-06-22T04:35:41;100225.91;;;16.29;48.52
74544;BME280;63016;55.030;38.710;2023-06-22T04:38:09;100221.94;;;16.40;48.58
74544;BME280;63016;55.030;38.710;2023-06-22T04:40:35;100222.16;;;16.52;48.20
74544;BME280;63016;55.030;38.710;2023-06-22T04:43:01;100214.13;;;16.66;48.37
74544;BME280;63016;55.030;38.710;2023-06-22T04:45:28;100220.06;;;16.82;48.58
74544;BME280;63016;55.030;38.710;2023-06-22T04:47:54;100218.50;;;16.94;48.15
74544;BME280;63016;55.030;38.710;2023-06-22T04:50:20;100220.38;;;17.07;48.44
74544;BME280;63016;55.030;38.710;2023-06-22T04:52:47;100216.72;;;17.21;48.39
74544;BME280;63016;55.030;38.710;2023-06-22T04:55:13;100211.47;;;17.34;48.08
74544;BME280;63016;55.030;38.710;2023-06-22T04:57:44;100214.72;;;17.50;47.96
74544;BME280;63016;55.030;38.710;2023-06-22T05:00:23;100206.00;;;17.62;48.11
74544;BME280;63016;55.030;38.710;2023-06-22T05:02:48;100196.88;;;17.78;48.46
74544;BME280;63016;55.030;38.710;2023-06-22T05:05:14;100203.56;;;17.94;48.32
74544;BME280;63016;55.030;38.710;2023-06-22T05:07:44;100214.09;;;18.14;48.48
74544;BME280;63016;55.030;38.710;2023-06-22T05:10:11;100207.53;;;18.30;48.31
74544;BME280;63016;55.030;38.710;2023-06-22T05:12:38;100209.28;;;-143.78;48.31
74544;BME280;63016;55.030;38.710;2023-06-22T05:15:04;100208.81;;;18.65;48.21
74544;BME280;63016;55.030;38.710;2023-06-22T05:17:30;100203.28;;;18.80;47.92
74544;BME280;63016;55.030;38.710;2023-06-22T05:19:56;100197.50;;;18.96;47.60
74544;BME280;63016;55.030;38.710;2023-06-22T05:22:21;100196.97;;;19.13;47.73
74544;BME280;63016;55.030;38.710;2023-06-22T05:24:47;100197.88;;;19.32;47.54
74544;BME280;63016;55.030;38.710;2023-06-22T05:27:13;100194.47;;;19.49;47.70
74544;BME280;63016;55.030;38.710;2023-06-22T05:29:39;100196.38;;;19.67;47.42
74544;BME280;63016;55.030;38.710;2023-06-22T05:32:04;100188.31;;;19.81;47.11
74544;BME280;63016;55.030;38.710;2023-06-22T05:34:30;100186.34;;;19.94;46.70
74544;BME280;63016;55.030;38.710;2023-06-22T05:36:56;100183.19;;;20.04;45.95
74544;BME280;63016;55.030;38.710;2023-06-22T05:39:24;100191.00;;;20.17;46.13
74544;BME280;63016;55.030;38.710;2023-06-22T05:41:49;100193.47;;;20.31;46.37
74544;BME280;63016;55.030;38.710;2023-06-22T05:44:15;100191.06;;;20.47;46.24
74544;BME280;63016;55.030;38.710;2023-06-22T05:46:42;100184.69;;;20.67;45.55
74544;BME280;63016;55.030;38.710;2023-06-22T05:49:12;100179.44;;;20.78;45.78
74544;BME280;63016;55.030;38.710;2023-06-22T05:51:38;100182.50;;;20.94;45.56
74544;BME280;63016;55.030;38.710;2023-06-22T05:54:04;100179.63;;;21.07;45.02
74544;BME280;63016;55.030;38.710;2023-06-22T05:56:29;100181.53;;;21.18;44.92
74544;BME280;63016;55.030;38.710;2023-06-22T05:58:55;100183.97;;;21.32;45.04
74544;BME280;63016;55.030;38.710;2023-06-22T06:01:20;100185.63;;;21.44;45.48
74544;BME280;63016;55.030;38.710;2023-06-22T06:03:46;100182.25;;;21.61;45.27
74544;BME280;63016;55.030;38.710;2023-06-22T06:06:12;100183.91;;;21.73;45.22
74544;BME280;63016;55.030;38.710;2023-06-22T06:08:38;100182.25;;;21.84;44.52
74544;BME280;63016;55.030;38.710;2023-06-22T06:11:04;100186.78;;;21.95;43.75
74544;BME280;63016;55.030;38.710;2023-06-22T06:13:29;100176.81;;;22.02;44.31
74544;BME280;63016;55.030;38.710;2023-06-22T06:15:55;100177.88;;;22.13;43.98
74544;BME280;63016;55.030;38.710;2023-06-22T06:18:21;100175.66;;;22.22;43.62
74544;BME280;63016;55.030;38.710;2023-06-22T06:20:46;100178.75;;;22.30;43.89
74544;BME280;63016;55.030;38.710;2023-06-22T06:23:12;100163.25;;;22.39;43.84
74544;BME280;63016;55.030;38.710;2023-06-22T06:28:42;100161.94;;;22.70;43.87
74544;BME280;63016;55.030;38.710;2023-06-22T06:34:11;100156.06;;;22.97;43.64
74544;BME280;63016;55.030;38.710;2023-06-22T06:36:36;100163.91;;;23.03;43.49
74544;BME280;63016;55.030;38.710;2023-06-22T06:39:21;100160.84;;;23.12;43.76
74544;BME280;63016;55.030;38.710;2023-06-22T06:41:46;100174.53;;;23.20;42.36
74544;BME280;63016;55.030;38.710;2023-06-22T06:44:12;100160.28;;;23.26;42.76
74544;BME280;63016;55.030;38.710;2023-06-22T06:46:38;100164.69;;;23.38;42.58
74544;BME280;63016;55.030;38.710;2023-06-22T06:49:03;100148.00;;;23.42;42.34
74544;BME280;63016;55.030;38.710;2023-06-22T06:51:29;100165.72;;;23.53;42.50
74544;BME280;63016;55.030;38.710;2023-06-22T06:53:54;100165.00;;;23.58;42.07
74544;BME280;63016;55.030;38.710;2023-06-22T06:56:20;100155.94;;;23.59;42.17
74544;BME280;63016;55.030;38.710;2023-06-22T06:58:46;100156.63;;;23.66;42.54
74544;BME280;63016;55.030;38.710;2023-06-22T07:01:12;100146.38;;;23.75;41.88
74544;BME280;63016;55.030;38.710;2023-06-22T07:06:40;100154.63;;;23.95;42.05
74544;BME280;63016;55.030;38.710;2023-06-22T07:11:51;100145.94;;;24.05;42.11
74544;BME280;63016;55.030;38.710;2023-06-22T07:14:16;100154.81;;;24.10;41.91
74544;BME280;63016;55.030;38.710;2023-06-22T07:16:42;100150.09;;;24.18;41.46
74544;BME280;63016;55.030;38.710;2023-06-22T07:19:07;100159.19;;;24.22;41.76
74544;BME280;63016;55.030;38.710;2023-06-22T07:21:33;100159.25;;;24.27;41.13
74544;BME280;63016;55.030;38.710;2023-06-22T07:23:58;100159.88;;;24.34;41.35
74544;BME280;63016;55.030;38.710;2023-06-22T07:26:24;100153.88;;;24.44;41.37
74544;BME280;63016;55.030;38.710;2023-06-22T07:28:49;100151.06;;;24.55;40.28
74544;BME280;63016;55.030;38.710;2023-06-22T07:31:16;100155.16;;;24.63;40.72
74544;BME280;63016;55.030;38.710;2023-06-22T07:33:41;100148.00;;;24.69;40.15
74544;BME280;63016;55.030;38.710;2023-06-22T07:36:25;100140.53;;;24.71;41.54
74544;BME280;63016;55.030;38.710;2023-06-22T07:38:51;100140.53;;;24.71;40.60
74544;BME280;63016;55.030;38.710;2023-06-22T07:41:16;100139.78;;;24.75;40.44
74544;BME280;63016;55.030;38.710;2023-06-22T07:43:42;100144.09;;;24.76;40.65
74544;BME280;63016;55.030;38.710;2023-06-22T07:46:07;100140.34;;;24.77;40.23
74544;BME280;63016;55.030;38.710;2023-06-22T07:48:37;100133.69;;;24.80;40.40
74544;BME280;63016;55.030;38.710;2023-06-22T07:51:02;100135.38;;;24.86;40.29
74544;BME280;63016;55.030;38.710;2023-06-22T07:53:28;100131.13;;;24.90;40.71
74544;BME280;63016;55.030;38.710;2023-06-22T07:55:53;100127.66;;;24.95;40.58
74544;BME280;63016;55.030;38.710;2023-06-22T07:58:19;100128.78;;;24.99;40.85
74544;BME280;63016;55.030;38.710;2023-06-22T08:00:46;100128.59;;;25.05;40.38
74544;BME280;63016;55.030;38.710;2023-06-22T08:03:14;100126.78;;;25.11;40.12
74544;BME280;63016;55.030;38.710;2023-06-22T08:05:39;100128.16;;;25.19;39.88
74544;BME280;63016;55.030;38.710;2023-06-22T08:08:05;100123.41;;;25.26;39.81
74544;BME280;63016;55.030;38.710;2023-06-22T08:10:30;100124.25;;;25.31;39.38
74544;BME280;63016;55.030;38.710;2023-06-22T08:12:56;100126.66;;;25.33;39.55
74544;BME280;63016;55.030;38.710;2023-06-22T08:15:21;100121.59;;;25.36;40.10
74544;BME280;63016;55.030;38.710;2023-06-22T08:20:52;100116.88;;;25.44;39.07
74544;BME280;63016;55.030;38.710;2023-06-22T08:23:18;100118.19;;;25.46;39.43
74544;BME280;63016;55.030;38.710;2023-06-22T08:25:45;100116.13;;;25.53;39.39
74544;BME280;63016;55.030;38.710;2023-06-22T08:28:11;100106.53;;;25.62;39.03
74544;BME280;63016;55.030;38.710;2023-06-22T08:30:36;100107.38;;;25.68;38.88
74544;BME280;63016;55.030;38.710;2023-06-22T08:33:02;100113.25;;;25.70;39.16
74544;BME280;63016;55.030;38.710;2023-06-22T08:35:27;100108.72;;;25.71;39.00
74544;BME280;63016;55.030;38.710;2023-06-22T08:37:54;100115.97;;;25.75;38.66
74544;BME280;63016;55.030;38.710;2023-06-22T08:40:40;100109.06;;;25.79;39.84
74544;BME280;63016;55.030;38.710;2023-06-22T08:43:06;100112.78;;;25.78;38.63
74544;BME280;63016;55.030;38.710;2023-06-22T08:45:50;100102.41;;;25.87;39.91
74544;BME280;63016;55.030;38.710;2023-06-22T08:48:15;100100.56;;;25.93;38.78
74544;BME280;63016;55.030;38.710;2023-06-22T08:50:41;100105.13;;;25.97;38.81
74544;BME280;63016;55.030;38.710;2023-06-22T08:53:06;100099.50;;;25.99;38.21
74544;BME280;63016;55.030;38.710;2023-06-22T08:55:33;100095.75;;;25.95;38.28
74544;BME280;63016;55.030;38.710;2023-06-22T08:57:59;100100.00;;;25.91;38.08
74544;BME280;63016;55.030;38.710;2023-06-22T09:00:42;100097.88;;;25.87;38.14
74544;BME280;63016;55.030;38.710;2023-06-22T09:03:08;100095.44;;;25.91;38.48
74544;BME280;63016;55.030;38.710;2023-06-22T09:05:33;100099.22;;;25.95;37.86
74544;BME280;63016;55.030;38.710;2023-06-22T09:07:59;100098.41;;;25.95;38.23
74544;BME280;63016;55.030;38.710;2023-06-22T09:10:25;100091.47;;;25.94;37.81
74544;BME280;63016;55.030;38.710;2023-06-22T09:16:12;100098.44;;;26.05;38.22
74544;BME280;63016;55.030;38.710;2023-06-22T09:18:38;100093.66;;;26.07;37.96
74544;BME280;63016;55.030;38.710;2023-06-22T09:23:48;100084.84;;;26.17;38.35
74544;BME280;63016;55.030;38.710;2023-06-22T09:26:17;100087.00;;;26.25;38.04
74544;BME280;63016;55.030;38.710;2023-06-22T09:28:42;100084.31;;;26.30;38.23
74544;BME280;63016;55.030;38.710;2023-06-22T09:31:08;100077.66;;;26.32;37.73
74544;BME280;63016;55.030;38.710;2023-06-22T09:33:33;100080.06;;;26.34;37.32
74544;BME280;63016;55.030;38.710;2023-06-22T09:35:59;100080.63;;;26.36;37.54
74544;BME280;63016;55.030;38.710;2023-06-22T09:38:43;100069.63;;;26.37;37.01
74544;BME280;63016;55.030;38.710;2023-06-22T09:41:08;100073.13;;;26.38;37.52
74544;BME280;63016;55.030;38.710;2023-06-22T09:43:34;100065.38;;;26.42;37.54
74544;BME280;63016;55.030;38.710;2023-06-22T09:46:01;100065.41;;;26.47;37.50
74544;BME280;63016;55.030;38.710;2023-06-22T09:48:28;100061.66;;;26.48;37.71
74544;BME280;63016;55.030;38.710;2023-06-22T09:50:54;100064.59;;;26.51;37.07
74544;BME280;63016;55.030;38.710;2023-06-22T09:53:20;100052.81;;;26.52;37.40
74544;BME280;63016;55.030;38.710;2023-06-22T09:55:46;100045.34;;;26.59;36.86
74544;BME280;63016;55.030;38.710;2023-06-22T09:58:12;100053.09;;;26.61;37.43
74544;BME280;63016;55.030;38.710;2023-06-22T10:00:37;100038.66;;;26.62;36.97
74544;BME280;63016;55.030;38.710;2023-06-22T10:03:03;100047.19;;;26.64;37.25
74544;BME280;63016;55.030;38.710;2023-06-22T10:05:28;100045.59;;;26.63;37.01
74544;BME280;63016;55.030;38.710;2023-06-22T10:07:53;100037.03;;;26.61;37.08
74544;BME280;63016;55.030;38.710;2023-06-22T10:10:19;100026.06;;;26.62;37.00
74544;BME280;63016;55.030;38.710;2023-06-22T10:12:55;100030.34;;;26.63;36.30
74544;BME280;63016;55.030;38.710;2023-06-22T10:15:20;100029.28;;;26.59;35.92
74544;BME280;63016;55.030;38.710;2023-06-22T10:17:47;100033.03;;;26.58;36.71
74544;BME280;63016;55.030;38.710;2023-06-22T10:20:13;100016.16;;;26.63;36.26
74544;BME280;63016;55.030;38.710;2023-06-22T10:22:42;100023.38;;;26.73;37.13
74544;BME280;63016;55.030;38.710;2023-06-22T10:25:09;100026.31;;;26.81;36.62
74544;BME280;63016;55.030;38.710;2023-06-22T10:27:35;100026.88;;;26.88;36.30
74544;BME280;63016;55.030;38.710;2023-06-22T10:30:00;100012.91;;;26.97;36.09
74544;BME280;63016;55.030;38.710;2023-06-22T10:32:26;100012.09;;;27.01;36.11
74544;BME280;63016;55.030;38.710;2023-06-22T10:34:53;100005.94;;;27.06;35.60
74544;BME280;63016;55.030;38.710;2023-06-22T10:37:19;100009.19;;;27.08;35.78
74544;BME280;63016;55.030;38.710;2023-06-22T10:39:44;100008.09;;;27.09;35.95
74544;BME280;63016;55.030;38.710;2023-06-22T10:42:29;100002.44;;;27.15;37.13
74544;BME280;63016;55.030;38.710;2023-06-22T10:44:55;99996.81;;;27.17;35.79
74544;BME280;63016;55.030;38.710;2023-06-22T10:47:20;99990.91;;;27.20;35.95
74544;BME280;63016;55.030;38.710;2023-06-22T10:49:45;99998.97;;;27.20;35.26
74544;BME280;63016;55.030;38.710;2023-06-22T10:52:11;99998.16;;;27.20;35.63
74544;BME280;63016;55.030;38.710;2023-06-22T10:54:37;99996.81;;;27.17;35.55
74544;BME280;63016;55.030;38.710;2023-06-22T10:57:03;100005.94;;;27.16;35.50
74544;BME280;63016;55.030;38.710;2023-06-22T11:00:06;99996.78;;;27.22;36.60
74544;BME280;63016;55.030;38.710;2023-06-22T11:02:33;99996.81;;;27.27;35.61
74544;BME280;63016;55.030;38.710;2023-06-22T11:05:17;99995.41;;;27.35;35.40
74544;BME280;63016;55.030;38.710;2023-06-22T11:07:43;99992.75;;;27.35;35.14
74544;BME280;63016;55.030;38.710;2023-06-22T11:10:10;99982.31;;;27.33;34.93
74544;BME280;63016;55.030;38.710;2023-06-22T11:12:35;99989.00;;;27.26;34.62
74544;BME280;63016;55.030;38.710;2023-06-22T11:15:01;99987.94;;;27.27;35.12
74544;BME280;63016;55.030;38.710;2023-06-22T11:17:26;99981.75;;;27.31;35.17
74544;BME280;63016;55.030;38.710;2023-06-22T11:19:52;99979.59;;;27.38;35.34
74544;BME280;63016;55.030;38.710;2023-06-22T11:22:17;99990.28;;;27.49;35.54
74544;BME280;63016;55.030;38.710;2023-06-22T11:24:43;99987.56;;;27.54;35.37
74544;BME280;63016;55.030;38.710;2023-06-22T11:27:08;99980.59;;;27.58;34.89
74544;BME280;63016;55.030;38.710;2023-06-22T11:30:11;99967.66;;;27.65;36.49
74544;BME280;63016;55.030;38.710;2023-06-22T11:35:39;99980.25;;;27.75;34.65
74544;BME280;63016;55.030;38.710;2023-06-22T11:38:05;99983.47;;;27.77;34.81
74544;BME280;63016;55.030;38.710;2023-06-22T11:40:30;99965.78;;;27.71;34.50
74544;BME280;63016;55.030;38.710;2023-06-22T11:42:56;99976.75;;;27.74;34.56
74544;BME280;63016;55.030;38.710;2023-06-22T11:45:21;99977.03;;;27.73;34.97
74544;BME280;63016;55.030;38.710;2023-06-22T11:47:47;99972.19;;;27.75;35.25
74544;BME280;63016;55.030;38.710;2023-06-22T11:50:13;99976.47;;;27.81;35.36
74544;BME280;63016;55.030;38.710;2023-06-22T11:52:57;99961.69;;;27.83;35.38
74544;BME280;63016;55.030;38.710;2023-06-22T11:55:22;99970.75;;;27.92;35.28
74544;BME280;63016;55.030;38.710;2023-06-22T11:57:54;99953.84;;;27.97;35.11
74544;BME280;63016;55.030;38.710;2023-06-22T12:00:20;99956.19;;;28.04;34.54
74544;BME280;63016;55.030;38.710;2023-06-22T12:02:49;99952.16;;;28.06;34.96
74544;BME280;63016;55.030;38.710;2023-06-22T12:07:58;99947.25;;;28.13;34.96
74544;BME280;63016;55.030;38.710;2023-06-22T12:10:25;99943.75;;;28.18;34.94
74544;BME280;63016;55.030;38.710;2023-06-22T12:12:51;99943.69;;;28.23;34.20
74544;BME280;63016;55.030;38.710;2023-06-22T12:15:16;99946.34;;;28.28;34.29
74544;BME280;63016;55.030;38.710;2023-06-22T12:17:42;99940.91;;;28.33;33.97
74544;BME280;63016;55.030;38.710;2023-06-22T12:20:08;99932.88;;;28.38;33.96
74544;BME280;63016;55.030;38.710;2023-06-22T12:22:34;99929.38;;;28.38;33.58
74544;BME280;63016;55.030;38.710;2023-06-22T12:25:00;99939.03;;;28.39;34.11
74544;BME280;63016;55.030;38.710;2023-06-22T12:27:25;99927.50;;;28.38;32.76
74544;BME280;63016;55.030;38.710;2023-06-22T12:29:51;99932.63;;;28.35;32.90
74544;BME280;63016;55.030;38.710;2023-06-22T12:35:19;99929.69;;;28.31;33.61
74544;BME280;63016;55.030;38.710;2023-06-22T12:40:28;99924.88;;;28.28;33.16
74544;BME280;63016;55.030;38.710;2023-06-22T12:42:54;99918.16;;;28.31;33.66
74544;BME280;63016;55.030;38.710;2023-06-22T12:45:19;99917.06;;;28.32;33.31
74544;BME280;63016;55.030;38.710;2023-06-22T12:48:22;99915.94;;;28.38;34.80
74544;BME280;63016;55.030;38.710;2023-06-22T12:50:48;99920.47;;;28.42;33.26
74544;BME280;63016;55.030;38.710;2023-06-22T12:53:13;99918.38;;;28.39;33.63
74544;BME280;63016;55.030;38.710;2023-06-22T12:55:39;99903.94;;;28.30;32.82
74544;BME280;63016;55.030;38.710;2023-06-22T12:58:22;99907.72;;;28.29;33.72
74544;BME280;63016;55.030;38.710;2023-06-22T13:00:48;99902.31;;;28.34;33.24
74544;BME280;63016;55.030;38.710;2023-06-22T13:03:32;99897.94;;;28.43;34.16
74544;BME280;63016;55.030;38.710;2023-06-22T13:05:58;99878.34;;;28.43;32.61
74544;BME280;63016;55.030;38.710;2023-06-22T13:08:24;99879.91;;;28.49;33.28
74544;BME280;63016;55.030;38.710;2023-06-22T13:10:49;99888.41;;;28.56;33.31
74544;BME280;63016;55.030;38.710;2023-06-22T13:13:15;99889.66;;;28.64;33.03
74544;BME280;63016;55.030;38.710;2023-06-22T13:15:40;99886.63;;;28.71;33.45
74544;BME280;63016;55.030;38.710;2023-06-22T13:20:50;99883.88;;;28.76;32.76
74544;BME280;63016;55.030;38.710;2023-06-22T13:25:59;99882.47;;;28.83;32.54
74544;BME280;63016;55.030;38.710;2023-06-22T13:31:09;99884.84;;;28.85;32.87
74544;BME280;63016;55.030;38.710;2023-06-22T13:33:34;99875.22;;;28.84;33.21
74544;BME280;63016;55.030;38.710;2023-06-22T13:36:00;99878.34;;;28.91;33.05